Pitt Greenville Airport
KPGV : rendu visible

Aérodrome :











RETROUVEZ-NOUS SUR...

 
LOGIN :

S'inscrire | Disclaimer

   EN    FR    IT 

 









Légende :    VFR   VFR Marginal   IFR   IFR Intensif   IFR Très Intensif
Visi : 
Plafond : 
>= 8 km
>= 3000ft
5 à 8 km
1000 à 3000 ft
1500m à 5 km
500 à 1000 ft
800 à 1500m
200 à 500 ft
< 800m
< 200 ft
Symboles :   Orages  Brouillard  Fortes neiges  Fortes précipitations  Vent > 20 kt






- Altitude de l'aérodrome : 26 ft


KPGV - Pitt Greenville

DERNIER METAR :
  • 202335Z AUTO 02008KT 2 1/2SM -SN OVC004 00/00 A3032 RMK AO2

METARs EXPIRÉS :
  • 202315Z AUTO 02008KT 2 1/2SM -SN OVC004 00/00 A3032 RMK AO2
  • 202255Z AUTO 01006KT 2 1/2SM -SN OVC004 00/00 A3032 RMK AO2
  • 202235Z AUTO 02005KT 1SM -SN OVC004 00/00 A3030 RMK AO2
  • 202215Z AUTO 01005KT 1SM -SN OVC006 00/00 A3031 RMK AO2
  • 202135Z AUTO 01008KT 2SM UP OVC008 01/00 A3031 RMK AO2 P0005
  • 202115Z AUTO 02009KT 4SM UP OVC008 01/01 A3031 RMK AO2 P0002
  • 202055Z AUTO 02011KT 5SM RA OVC010 02/01 A3031 RMK AO2 P0007
  • 202035Z AUTO 03012KT 7SM RA SCT006 OVC010 02/01 A3031 RMK AO2 P0004

TAF KPGV
Valide du 20 à 23h jusqu'au 21 à 18h UTC


202308Z 2023/2118 02011KT 1 1/2SM -SN OVC005
FM210100 01011KT 1/2SM SN OVC004
FM210800 01011KT 4SM -SN OVC007
FM211100 01012G20KT P6SM SCT040 AMD LTD TO CLD VIS AND WIND



MET'MAP, la Météo Aéronautique d'un coup d'oeil ! - Copyright ORBIFLY Décembre 2007 - Disclaimer

ORBIFLY MET'MAP TEAM :

Programmation & Développement : Alexandra Zaïnal
Sur une idée originale de : Baudouin d'Aumeries
Assistance à la programmation : Marc-Olivier Méhu
Soutien technique & logistique : Manuel Goepfert

Contact : metmap@orbifly.com




SOURCES & CREDITS :

   NOAA       Earth
Advisory